Aérodrome :
LOGIN :

S'inscrire | Disclaimer

   EN    FR    IT 

 










Légende :    VFR   VFR Marginal   IFR   IFR Intensif   IFR Très Intensif
Visi : 
Plafond : 
>= 8 km
>= 3000ft
5 à 8 km
1000 à 3000 ft
1500m à 5 km
500 à 1000 ft
800 à 1500m
200 à 500 ft
< 800m
< 200 ft
Symboles :   Orages  Brouillard  Fortes neiges  Fortes précipitations  Vent > 20 kt
SIGMETs :   Divers  Orages  Givrage  Turbulence  Onde Orograph.  Cendres Volcan.






- Altitude de l'aérodrome : 489 ft
- Code IATA : GDN


EPGD - Gdansk

DERNIER METAR :
  • 291400Z 18015KT 9999 -RA BKN014 03/00 Q0997

METARs EXPIRÉS :
  • 291330Z 18011KT 9999 BKN020 03/M01 Q0998
  • 291300Z 18013KT 9999 -RA SCT020 BKN024 03/M01 Q0998
  • 291230Z 18015KT 9999 -RA FEW019 SCT026 03/M01 Q0999
  • 291200Z 18014KT 150V210 9999 BKN025 04/M02 Q0999
  • 291130Z 18015KT 9999 FEW028 04/M02 Q0999
  • 291100Z 17012KT 140V210 CAVOK 04/M02 Q1000

TAF TAF EPGD
Valide du 29 à 12h jusqu'au 01 à 12h UTC


291130Z 2912/0112 18012KT 9999 BKN040
BECMG 2912/2915 -RA BKN012
TEMPO 2912/2920 19016G26KT
PROB40 2912/2920 3000 -RASN -SN BKN003 OVC006
BECMG 2918/2920 24012KT
TEMPO 2920/0112 23016G26KT -SHRA BKN005 BKN012CB



MET'MAP, la Météo Aéronautique d'un coup d'oeil ! - Copyright ORBIFLY Décembre 2007 - Disclaimer

ORBIFLY MET'MAP TEAM :

Programmation & Développement : Alexandra Zaïnal
Sur une idée originale de : Baudouin d'Aumeries
Assistance à la programmation : Marc-Olivier Méhu
Soutien technique & logistique : Manuel Goepfert

Contact : metmap@orbifly.com




SOURCES & CREDITS :

   NOAA